TA48 weather

Public forecast

Using degrees Fahrenheit for public forecast. Weather courtesy of forecast.io.

Closest aviation weather report (METAR) to Hawk Nest Heliport

Closest report is Denton Municipal Airport, 4.9 nm (9.1 km) NNW. Retrieved 2020/08/11 01:53 UTC (16 minutes ago):

KDTO 110153Z 15009KT 10SM CLR 32/18 A2988 RMK AO2 SLP107 T03220178

Closest aviation forecast (TAF) to Hawk Nest Heliport

Closest forecast is Fort Worth Alliance Airport, 11.8 nm (21.9 km) SW. Retrieved 2020-08-11 00:30 UTC (2 hours ago):

TAF KAFW 102327Z 1100/1124 18014KT P6SM FEW060